Time;durP1;ratioP1;P1;durP2;ratioP2;P2;SDS_P1;SDS_P2;PMS_P1;PMS_P2;Temp;Humidity;BMP_temperature;BMP_pressure;BME280_temperature;BME280_humidity;BME280_pressure;Samples;Min_cycle;Max_cycle;Signal;HPM_P1;HPM_P2
2022/06/08 00:01:21;;;;;;;5.90;2.90;;;13.60;99.90;;;;;;4963288;28;20046;-75
2022/06/08 00:03:56;;;;;;;6.00;2.90;;;13.70;99.90;;;;;;4988971;28;20166;-75
2022/06/08 00:06:22;;;;;;;5.88;2.80;;;13.60;99.90;;;;;;4980252;28;20489;-74
2022/06/08 00:08:48;;;;;;;5.20;2.60;;;13.60;99.90;;;;;;4977645;28;20034;-74
2022/06/08 00:11:15;;;;;;;10.65;3.33;;;13.60;99.90;;;;;;4985355;28;20046;-75
2022/06/08 00:13:42;;;;;;;4.35;2.60;;;13.60;99.90;;;;;;4983742;28;20077;-74
2022/06/08 00:16:09;;;;;;;4.95;2.70;;;13.50;99.90;;;;;;4981674;28;20038;-75
2022/06/08 00:18:35;;;;;;;6.35;2.70;;;13.50;99.90;;;;;;4982814;28;20455;-75
2022/06/08 00:21:00;;;;;;;7.85;3.10;;;13.50;99.90;;;;;;4984975;28;20109;-74
2022/06/08 00:23:26;;;;;;;6.35;3.13;;;13.50;99.90;;;;;;4985812;28;20108;-75
2022/06/08 00:25:52;;;;;;;5.55;3.10;;;13.50;99.90;;;;;;4986017;28;20110;-74
2022/06/08 00:28:19;;;;;;;5.95;2.72;;;13.50;99.90;;;;;;4988472;28;20085;-74
2022/06/08 00:30:45;;;;;;;7.85;3.55;;;13.40;99.90;;;;;;4993879;28;20034;-74
2022/06/08 00:33:11;;;;;;;6.15;3.10;;;13.40;99.90;;;;;;4986696;28;20435;-73
2022/06/08 00:35:37;;;;;;;5.55;2.72;;;13.50;99.90;;;;;;4979009;28;20034;-73
2022/06/08 00:38:04;;;;;;;9.30;3.55;;;13.40;99.90;;;;;;4985601;28;20031;-74
2022/06/08 00:41:01;;;;;;;7.50;2.88;;;13.40;99.90;;;;;;4984891;28;20491;-74
2022/06/08 00:43:27;;;;;;;6.50;3.10;;;13.40;99.90;;;;;;4985970;28;20030;-74
2022/06/08 00:45:54;;;;;;;4.95;3.15;;;13.40;99.90;;;;;;4979326;28;20165;-74
2022/06/08 00:48:21;;;;;;;5.82;3.10;;;13.40;99.90;;;;;;4987511;28;20384;-74
2022/06/08 00:50:57;;;;;;;5.30;3.33;;;13.40;99.90;;;;;;4982219;28;20034;-75
2022/06/08 00:53:30;;;;;;;6.82;3.20;;;13.30;99.90;;;;;;4986305;28;20049;-75
2022/06/08 00:56:00;;;;;;;6.35;3.42;;;13.30;99.90;;;;;;4984937;28;20113;-75
2022/06/08 00:58:30;;;;;;;5.57;3.53;;;13.30;99.90;;;;;;4982991;28;20037;-74
2022/06/08 01:00:58;;;;;;;4.28;2.75;;;13.30;99.90;;;;;;4976929;28;20089;-75
2022/06/08 01:03:26;;;;;;;4.75;3.25;;;13.20;99.90;;;;;;4969252;28;20505;-75
2022/06/08 01:06:01;;;;;;;5.57;2.92;;;13.10;99.90;;;;;;4983084;28;20027;-76
2022/06/08 01:08:40;;;;;;;6.65;3.67;;;13.10;99.90;;;;;;4968857;28;20068;-74
2022/06/08 01:11:31;;;;;;;5.22;3.47;;;13.10;99.90;;;;;;4976205;28;20125;-75
2022/06/08 01:14:00;;;;;;;5.67;3.53;;;13.10;99.90;;;;;;4966711;28;20101;-74
2022/06/08 01:16:26;;;;;;;7.25;3.40;;;13.00;99.90;;;;;;4964301;28;20293;-74
2022/06/08 01:18:52;;;;;;;7.55;3.92;;;13.10;99.90;;;;;;4988670;28;20649;-74
2022/06/08 01:21:21;;;;;;;7.32;3.28;;;13.10;99.90;;;;;;4982213;28;20109;-74
2022/06/08 01:23:54;;;;;;;6.63;3.58;;;13.10;99.90;;;;;;4970571;28;20026;-74
2022/06/08 01:26:45;;;;;;;5.90;3.45;;;13.00;99.90;;;;;;4983669;28;20053;-74
2022/06/08 01:29:34;;;;;;;6.60;3.90;;;13.00;99.90;;;;;;4984329;28;20104;-75
2022/06/08 01:32:21;;;;;;;4.93;3.50;;;13.00;99.90;;;;;;4959004;28;20484;-75
2022/06/08 01:35:18;;;;;;;8.30;3.95;;;13.00;99.90;;;;;;4982175;28;20105;-74
2022/06/08 01:38:12;;;;;;;5.57;3.70;;;13.00;99.90;;;;;;4987206;28;20061;-75
2022/06/08 01:40:55;;;;;;;6.43;3.97;;;12.90;99.90;;;;;;4981191;28;20363;-74
2022/06/08 01:43:47;;;;;;;6.72;3.78;;;12.90;99.90;;;;;;4982291;28;20134;-75
2022/06/08 01:46:24;;;;;;;7.80;4.50;;;12.90;99.90;;;;;;4982135;28;20073;-74
2022/06/08 01:48:55;;;;;;;6.40;4.63;;;12.90;99.90;;;;;;4984375;28;20086;-75
2022/06/08 01:51:42;;;;;;;7.57;4.28;;;12.90;99.90;;;;;;4978659;28;20026;-74
2022/06/08 01:54:25;;;;;;;6.70;4.32;;;12.90;99.90;;;;;;4983783;28;20041;-75
2022/06/08 01:56:54;;;;;;;7.78;4.13;;;12.90;99.90;;;;;;4981264;28;20062;-75
2022/06/08 01:59:39;;;;;;;6.68;4.15;;;12.80;99.90;;;;;;4984419;28;20064;-74
2022/06/08 02:02:13;;;;;;;6.82;4.22;;;12.90;99.90;;;;;;4982719;28;20023;-75
2022/06/08 02:04:52;;;;;;;6.65;4.43;;;12.80;99.90;;;;;;4981980;28;20026;-75
2022/06/08 02:07:39;;;;;;;6.70;4.57;;;12.80;99.90;;;;;;4983899;28;20669;-75
2022/06/08 02:10:24;;;;;;;13.55;4.55;;;12.80;99.90;;;;;;4980710;28;20032;-75
2022/06/08 02:13:01;;;;;;;6.65;3.80;;;12.80;99.90;;;;;;4983000;28;20038;-73
2022/06/08 02:15:38;;;;;;;9.02;4.40;;;12.80;99.90;;;;;;4986967;28;20027;-73
2022/06/08 02:18:11;;;;;;;6.85;4.60;;;12.70;99.90;;;;;;4986914;28;20022;-74
2022/06/08 02:20:48;;;;;;;5.22;4.22;;;12.70;99.90;;;;;;4984209;28;20030;-74
2022/06/08 02:23:18;;;;;;;9.07;4.18;;;12.70;99.90;;;;;;4985902;28;20102;-75
2022/06/08 02:25:49;;;;;;;6.28;4.20;;;12.70;99.90;;;;;;4985231;28;20022;-74
2022/06/08 02:28:24;;;;;;;7.07;4.20;;;12.70;99.90;;;;;;4985650;28;20035;-74
2022/06/08 02:30:58;;;;;;;7.40;4.53;;;12.60;99.90;;;;;;4985648;28;20076;-75
2022/06/08 02:36:19;;;;;;;6.05;4.13;;;12.60;99.90;;;;;;4987535;28;20073;-76
2022/06/08 02:38:56;;;;;;;6.20;4.05;;;12.60;99.90;;;;;;4986907;28;20097;-74
2022/06/08 02:41:25;;;;;;;5.70;4.38;;;12.50;99.90;;;;;;4983163;28;20041;-75
2022/06/08 02:44:02;;;;;;;7.35;4.38;;;12.50;99.90;;;;;;4985904;28;20031;-74
2022/06/08 02:46:43;;;;;;;5.32;4.18;;;12.40;99.90;;;;;;4988859;28;20410;-74
2022/06/08 02:49:09;;;;;;;7.57;4.22;;;12.40;99.90;;;;;;4981839;28;20146;-75
2022/06/08 02:51:36;;;;;;;7.00;4.55;;;12.40;99.90;;;;;;4987666;28;20030;-75
2022/06/08 02:54:12;;;;;;;8.00;5.18;;;12.40;99.90;;;;;;4982431;28;20041;-76
2022/06/08 02:56:59;;;;;;;8.95;5.45;;;12.50;99.90;;;;;;4984922;28;20034;-75
2022/06/08 02:59:40;;;;;;;6.95;4.70;;;12.40;99.90;;;;;;4987139;28;20031;-74
2022/06/08 03:02:15;;;;;;;9.55;5.60;;;12.40;99.90;;;;;;4985011;28;20117;-74
2022/06/08 03:04:42;;;;;;;7.25;4.80;;;12.50;99.90;;;;;;4985739;28;20029;-74
2022/06/08 03:07:16;;;;;;;8.73;5.03;;;12.50;99.90;;;;;;4983781;28;20640;-74
2022/06/08 03:09:43;;;;;;;8.77;5.93;;;12.50;99.90;;;;;;4983070;28;20039;-75
2022/06/08 03:12:16;;;;;;;6.13;4.75;;;12.50;99.90;;;;;;4968344;28;20026;-74
2022/06/08 03:14:44;;;;;;;7.30;4.78;;;12.50;99.90;;;;;;4979800;28;20030;-75
2022/06/08 03:17:11;;;;;;;8.73;5.55;;;12.50;99.90;;;;;;4987228;28;20034;-74
2022/06/08 03:19:37;;;;;;;6.05;4.07;;;12.50;99.90;;;;;;4984232;28;20035;-75
2022/06/08 03:22:04;;;;;;;6.88;5.03;;;12.40;99.90;;;;;;4969248;28;20034;-75
2022/06/08 03:24:30;;;;;;;9.60;5.55;;;12.50;99.90;;;;;;4968723;28;20109;-76
2022/06/08 03:27:00;;;;;;;8.63;5.30;;;12.50;99.90;;;;;;4982552;28;20117;-74
2022/06/08 03:29:26;;;;;;;7.27;5.43;;;12.50;99.90;;;;;;4983399;28;20041;-74
2022/06/08 03:31:52;;;;;;;8.48;4.63;;;12.50;99.90;;;;;;4987842;28;20038;-76
2022/06/08 03:34:18;;;;;;;8.18;4.72;;;12.50;99.90;;;;;;4987599;28;20391;-74
2022/06/08 03:36:45;;;;;;;9.13;4.53;;;12.50;99.90;;;;;;4986554;28;20097;-73
2022/06/08 03:39:11;;;;;;;7.60;4.55;;;12.50;99.90;;;;;;4987033;28;20031;-73
2022/06/08 03:41:37;;;;;;;8.15;5.38;;;12.50;99.90;;;;;;4985090;28;20034;-74
2022/06/08 03:44:03;;;;;;;7.13;4.82;;;12.50;99.90;;;;;;4977923;28;20100;-74
2022/06/08 03:46:34;;;;;;;8.43;5.60;;;12.60;99.90;;;;;;4977310;28;20470;-74
2022/06/08 03:49:00;;;;;;;8.18;5.30;;;12.60;99.90;;;;;;4983296;28;20031;-74
2022/06/08 03:51:26;;;;;;;6.68;4.80;;;12.70;99.90;;;;;;4984780;28;20049;-74
2022/06/08 03:54:15;;;;;;;6.95;4.85;;;12.70;99.90;;;;;;4984939;28;20419;-74
2022/06/08 03:56:45;;;;;;;7.38;4.82;;;12.70;99.90;;;;;;4982043;28;20034;-74
2022/06/08 03:59:11;;;;;;;9.05;4.90;;;12.70;99.90;;;;;;4981768;28;20041;-73
2022/06/08 04:01:37;;;;;;;7.82;5.43;;;12.70;99.90;;;;;;4967926;28;20406;-75
2022/06/08 04:04:04;;;;;;;7.03;4.22;;;12.70;99.90;;;;;;4982997;28;20030;-74
2022/06/08 04:06:30;;;;;;;7.60;5.15;;;12.70;99.90;;;;;;4983838;28;20045;-76
2022/06/08 04:08:55;;;;;;;8.13;5.60;;;12.70;99.90;;;;;;4987973;28;20655;-73
2022/06/08 04:11:21;;;;;;;8.73;5.95;;;12.70;99.90;;;;;;4985054;28;20038;-74
2022/06/08 04:13:47;;;;;;;11.48;6.13;;;12.70;99.90;;;;;;4988145;28;20042;-79
2022/06/08 04:16:15;;;;;;;11.90;6.20;;;12.70;99.90;;;;;;4982732;28;20540;-75
2022/06/08 04:18:41;;;;;;;10.63;5.88;;;12.80;99.90;;;;;;4988279;28;20041;-73
2022/06/08 04:21:09;;;;;;;10.73;6.82;;;12.80;99.90;;;;;;4985045;28;20031;-74
2022/06/08 04:23:37;;;;;;;9.20;6.18;;;12.80;99.90;;;;;;4986544;28;20109;-75
2022/06/08 04:26:04;;;;;;;10.10;6.53;;;12.80;99.90;;;;;;4985984;28;20414;-75
2022/06/08 04:28:31;;;;;;;12.23;7.45;;;13.00;99.90;;;;;;4986789;28;20031;-74
2022/06/08 04:30:57;;;;;;;10.77;6.40;;;13.10;99.90;;;;;;4977090;28;20062;-74
2022/06/08 04:33:23;;;;;;;11.73;7.28;;;13.10;99.90;;;;;;4976307;28;20064;-73
2022/06/08 04:35:49;;;;;;;14.60;8.48;;;13.20;99.90;;;;;;4982840;28;20023;-73
2022/06/08 04:38:16;;;;;;;11.80;6.78;;;13.20;99.90;;;;;;4985102;28;20525;-74
2022/06/08 04:40:42;;;;;;;9.20;5.80;;;13.30;99.90;;;;;;4980808;28;20085;-74
2022/06/08 04:43:08;;;;;;;16.02;7.28;;;13.30;99.90;;;;;;4982337;28;20031;-74
2022/06/08 04:45:35;;;;;;;10.15;7.22;;;13.30;99.90;;;;;;4978767;28;20031;-75
2022/06/08 04:48:02;;;;;;;11.13;6.53;;;13.40;99.90;;;;;;4980014;28;20027;-74
2022/06/08 04:50:28;;;;;;;11.88;5.60;;;13.40;99.90;;;;;;4984576;28;20026;-74
2022/06/08 04:52:54;;;;;;;16.23;7.05;;;13.50;99.90;;;;;;4978501;28;20047;-75
2022/06/08 04:55:20;;;;;;;16.17;8.82;;;13.50;99.90;;;;;;4982319;28;20105;-74
2022/06/08 04:57:46;;;;;;;11.68;6.82;;;13.50;99.90;;;;;;4971733;28;20099;-74
2022/06/08 05:00:17;;;;;;;17.08;10.05;;;13.60;99.90;;;;;;4974614;28;20716;-74
2022/06/08 05:02:48;;;;;;;16.70;9.18;;;13.60;99.90;;;;;;4975660;28;20375;-74
2022/06/08 05:05:24;;;;;;;;;;;13.50;99.90;;;;;;4981163;28;20034;-75
2022/06/08 05:07:50;;;;;;;10.52;7.10;;;13.50;99.90;;;;;;4983759;28;19956;-75
2022/06/08 05:10:17;;;;;;;12.85;7.35;;;13.60;99.90;;;;;;4984505;28;20449;-75
2022/06/08 05:12:43;;;;;;;14.40;7.90;;;13.80;99.90;;;;;;4981721;28;20087;-75
2022/06/08 05:15:13;;;;;;;15.07;9.45;;;13.90;99.90;;;;;;4972877;28;20026;-75
2022/06/08 05:17:39;;;;;;;15.85;8.40;;;14.00;99.90;;;;;;4982009;28;20026;-74
2022/06/08 05:20:07;;;;;;;13.48;9.02;;;14.20;99.90;;;;;;4979221;28;20564;-74
2022/06/08 05:22:33;;;;;;;15.63;9.32;;;14.30;99.90;;;;;;4983264;28;20023;-73
2022/06/08 05:25:03;;;;;;;13.02;8.25;;;14.40;99.90;;;;;;4981687;28;20034;-74
2022/06/08 05:27:29;;;;;;;15.55;7.82;;;14.50;99.90;;;;;;4962971;28;20023;-74
2022/06/08 05:29:55;;;;;;;13.65;7.85;;;14.50;99.90;;;;;;4976704;28;20038;-76
2022/06/08 05:32:21;;;;;;;10.20;6.90;;;14.50;99.90;;;;;;4981428;28;20030;-74
2022/06/08 05:34:46;;;;;;;18.30;8.50;;;14.50;99.90;;;;;;4965957;28;20045;-74
2022/06/08 05:37:12;;;;;;;11.55;7.28;;;14.60;99.90;;;;;;4963796;28;20042;-74
2022/06/08 05:39:38;;;;;;;11.30;8.13;;;14.60;99.90;;;;;;4970360;28;20026;-74
2022/06/08 05:42:04;;;;;;;13.77;7.13;;;14.80;99.90;;;;;;4974308;28;20038;-74
2022/06/08 05:44:32;;;;;;;12.48;7.60;;;14.90;99.90;;;;;;4975002;28;20410;-73
2022/06/08 05:46:58;;;;;;;9.38;7.00;;;15.00;99.90;;;;;;4986293;28;20026;-74
2022/06/08 05:49:24;;;;;;;11.77;8.77;;;15.00;99.90;;;;;;4988239;28;20494;-73
2022/06/08 05:51:49;;;;;;;10.82;7.38;;;15.10;99.90;;;;;;4990687;28;20027;-73
2022/06/08 05:54:15;;;;;;;16.88;8.63;;;15.10;99.90;;;;;;4992680;28;20563;-73
2022/06/08 05:56:41;;;;;;;12.63;7.35;;;15.10;99.90;;;;;;4986769;28;20027;-73
2022/06/08 05:59:07;;;;;;;13.88;7.93;;;15.20;99.90;;;;;;4987297;28;20046;-72
2022/06/08 06:01:33;;;;;;;10.23;7.40;;;15.20;99.90;;;;;;4994320;28;20046;-73
2022/06/08 06:04:03;;;;;;;11.82;7.78;;;15.20;99.90;;;;;;4987576;28;20027;-72
2022/06/08 06:06:30;;;;;;;16.85;10.35;;;15.20;99.90;;;;;;4986416;28;20038;-72
2022/06/08 06:08:57;;;;;;;17.38;9.57;;;15.00;99.90;;;;;;4979058;28;20041;-75
2022/06/08 06:11:22;;;;;;;10.57;7.80;;;14.90;99.90;;;;;;4983328;28;20042;-74
2022/06/08 06:13:48;;;;;;;14.40;7.97;;;15.00;99.90;;;;;;4990329;28;20038;-73
2022/06/08 06:16:14;;;;;;;15.90;8.52;;;15.00;99.90;;;;;;4977241;28;20034;-74
2022/06/08 06:18:40;;;;;;;14.73;8.75;;;15.20;99.90;;;;;;4986839;28;20089;-72
2022/06/08 06:21:06;;;;;;;16.73;9.55;;;15.30;99.90;;;;;;4988785;28;20807;-74
2022/06/08 06:23:33;;;;;;;19.05;9.18;;;15.40;99.90;;;;;;4986036;28;20043;-71
2022/06/08 06:26:00;;;;;;;16.48;7.55;;;15.60;99.90;;;;;;4975642;28;20058;-74
2022/06/08 06:28:26;;;;;;;15.82;7.75;;;15.70;99.90;;;;;;4980132;28;20034;-73
2022/06/08 06:30:52;;;;;;;14.38;8.00;;;15.80;99.90;;;;;;4971945;28;20018;-73
2022/06/08 06:33:17;;;;;;;12.27;7.45;;;15.70;99.90;;;;;;4982185;28;20022;-73
2022/06/08 06:35:43;;;;;;;11.25;6.28;;;15.40;99.90;;;;;;4983427;28;20981;-73
2022/06/08 06:38:10;;;;;;;19.05;8.55;;;15.50;99.90;;;;;;4982653;28;20048;-74
2022/06/08 06:40:37;;;;;;;9.25;5.50;;;15.50;99.90;;;;;;4967500;28;20031;-73
2022/06/08 06:43:05;;;;;;;11.38;6.55;;;15.60;99.90;;;;;;4980025;28;20038;-73
2022/06/08 06:45:31;;;;;;;11.95;6.15;;;15.50;99.90;;;;;;4994608;28;20384;-74
2022/06/08 06:47:58;;;;;;;11.25;7.20;;;15.60;99.90;;;;;;4987005;28;20105;-73
2022/06/08 06:50:25;;;;;;;11.98;7.75;;;15.60;99.90;;;;;;4985056;28;20101;-73
2022/06/08 06:52:52;;;;;;;11.68;7.28;;;15.60;99.90;;;;;;4988894;28;20037;-73
2022/06/08 06:55:27;;;;;;;14.07;8.57;;;15.60;99.90;;;;;;4983999;28;20035;-74
2022/06/08 06:57:54;;;;;;;12.13;7.18;;;15.50;99.90;;;;;;4989429;28;20118;-73
2022/06/08 07:00:20;;;;;;;8.90;6.60;;;15.70;99.90;;;;;;4986981;28;20038;-73
2022/06/08 07:02:46;;;;;;;11.45;6.95;;;15.70;99.90;;;;;;4984435;28;20455;-73
2022/06/08 07:05:24;;;;;;;15.50;7.47;;;15.80;99.90;;;;;;4991349;28;20026;-73
2022/06/08 07:07:50;;;;;;;12.38;6.65;;;15.90;99.90;;;;;;4989990;28;20367;-72
2022/06/08 07:10:17;;;;;;;11.50;6.55;;;16.10;99.90;;;;;;4988453;28;20034;-74
2022/06/08 07:12:43;;;;;;;14.73;7.80;;;16.10;99.90;;;;;;4978125;28;20030;-72
2022/06/08 07:15:13;;;;;;;13.73;8.48;;;16.10;99.90;;;;;;4982966;28;20042;-72
2022/06/08 07:17:39;;;;;;;16.55;8.88;;;16.00;99.90;;;;;;4984818;28;20053;-72
2022/06/08 07:20:05;;;;;;;20.20;8.43;;;15.90;99.90;;;;;;4980259;28;20022;-73
2022/06/08 07:22:31;;;;;;;13.25;6.85;;;15.80;99.90;;;;;;4982062;28;20061;-73
2022/06/08 07:24:56;;;;;;;17.23;8.90;;;16.00;99.90;;;;;;4981484;28;20531;-75
2022/06/08 07:27:22;;;;;;;14.82;8.25;;;16.10;99.90;;;;;;4986216;28;20073;-74
2022/06/08 07:29:49;;;;;;;13.30;7.85;;;16.20;99.90;;;;;;4984475;28;20073;-75
2022/06/08 07:32:15;;;;;;;12.70;7.25;;;16.20;99.90;;;;;;4985409;28;20045;-74
2022/06/08 07:34:41;;;;;;;16.55;7.80;;;16.40;99.90;;;;;;4987422;28;20031;-74
2022/06/08 07:37:07;;;;;;;14.25;7.13;;;16.40;99.90;;;;;;4983504;28;20077;-74
2022/06/08 07:39:34;;;;;;;15.48;7.03;;;16.40;99.90;;;;;;4985443;28;20113;-74
2022/06/08 07:41:59;;;;;;;12.70;6.20;;;16.50;99.90;;;;;;4987319;28;20034;-76
2022/06/08 07:44:25;;;;;;;14.27;7.57;;;16.50;99.90;;;;;;4990911;28;20029;-74
2022/06/08 07:46:51;;;;;;;10.57;5.47;;;16.50;99.90;;;;;;4986511;28;20032;-74
2022/06/08 07:49:39;;;;;;;12.70;7.30;;;16.50;99.90;;;;;;4981077;28;20537;-74
2022/06/08 07:52:17;;;;;;;12.40;7.32;;;16.60;99.90;;;;;;4992070;28;20081;-74
2022/06/08 07:54:45;;;;;;;15.27;8.32;;;16.60;99.90;;;;;;4989218;28;20042;-74
2022/06/08 07:57:22;;;;;;;13.10;7.60;;;16.40;99.90;;;;;;4984605;28;20109;-74
2022/06/08 07:59:49;;;;;;;12.05;7.40;;;16.60;99.90;;;;;;4983871;28;20077;-75
2022/06/08 08:02:15;;;;;;;12.45;8.02;;;16.60;99.90;;;;;;4987208;28;20052;-74
2022/06/08 08:04:42;;;;;;;16.52;8.20;;;16.70;99.90;;;;;;4977666;28;20141;-74
2022/06/08 08:07:08;;;;;;;8.70;5.70;;;16.80;99.90;;;;;;4984463;28;20503;-73
2022/06/08 08:09:34;;;;;;;10.35;6.03;;;16.80;99.90;;;;;;4976511;28;20499;-73
2022/06/08 08:12:01;;;;;;;12.88;6.43;;;17.00;99.90;;;;;;4983656;28;20034;-72
2022/06/08 08:14:27;;;;;;;12.02;6.97;;;17.20;99.90;;;;;;4982822;28;20041;-73
2022/06/08 08:16:54;;;;;;;9.98;5.95;;;17.30;99.90;;;;;;4984187;28;20562;-74
2022/06/08 08:19:22;;;;;;;8.63;5.35;;;17.30;99.90;;;;;;4986267;28;20026;-73
2022/06/08 08:21:49;;;;;;;10.43;6.60;;;17.40;99.90;;;;;;4987544;28;20084;-73
2022/06/08 08:24:15;;;;;;;13.30;6.80;;;17.50;99.90;;;;;;4979549;28;20038;-72
2022/06/08 08:26:42;;;;;;;16.10;8.95;;;17.60;99.90;;;;;;4983414;28;20026;-73
2022/06/08 08:29:08;;;;;;;11.20;6.70;;;17.50;99.90;;;;;;4987292;28;20026;-72
2022/06/08 08:31:34;;;;;;;9.88;6.15;;;17.50;99.90;;;;;;4984742;28;20521;-73
2022/06/08 08:34:00;;;;;;;9.20;6.55;;;17.50;99.90;;;;;;4982262;28;20030;-73
2022/06/08 08:36:26;;;;;;;12.02;6.88;;;17.60;99.90;;;;;;4986781;28;20037;-73
2022/06/08 08:38:51;;;;;;;12.85;7.82;;;17.50;99.90;;;;;;4984117;28;20035;-75
2022/06/08 08:44:32;;;;;;;13.00;8.63;;;17.50;99.90;;;;;;4983399;28;21609;-74
2022/06/08 08:47:33;;;;;;;14.95;8.27;;;17.50;99.90;;;;;;4986762;28;20560;-73
2022/06/08 08:50:16;;;;;;;16.45;9.25;;;17.60;99.90;;;;;;4983730;28;20503;-75
2022/06/08 08:52:54;;;;;;;13.27;7.25;;;17.60;99.90;;;;;;4985602;28;20030;-73
2022/06/08 08:56:03;;;;;;;9.75;7.10;;;17.60;99.90;;;;;;4988590;28;20032;-72
2022/06/08 08:58:37;;;;;;;16.30;9.18;;;17.70;99.90;;;;;;4966674;28;20070;-73
2022/06/08 09:01:31;;;;;;;11.18;8.02;;;17.70;99.90;;;;;;4980295;28;20034;-73
2022/06/08 09:04:12;;;;;;;13.02;7.00;;;17.80;99.90;;;;;;4984831;28;20493;-73
2022/06/08 09:06:39;;;;;;;14.30;9.02;;;17.90;99.90;;;;;;4979695;28;20074;-73
2022/06/08 09:09:12;;;;;;;9.43;7.95;;;17.60;99.90;;;;;;4984789;28;20164;-74
2022/06/08 09:11:41;;;;;;;10.40;6.10;;;17.70;99.90;;;;;;4985919;28;20108;-73
2022/06/08 09:14:14;;;;;;;10.35;6.97;;;17.80;99.90;;;;;;4983256;28;20065;-75
2022/06/08 09:16:41;;;;;;;7.60;5.80;;;17.90;99.90;;;;;;4984571;28;20479;-72
2022/06/08 09:19:28;;;;;;;12.32;8.43;;;18.00;99.90;;;;;;4978570;28;20506;-74
2022/06/08 09:21:54;;;;;;;10.32;6.35;;;18.10;99.90;;;;;;4982196;28;20148;-74
2022/06/08 09:24:22;;;;;;;13.20;8.55;;;18.20;99.90;;;;;;4982529;28;20106;-74
2022/06/08 09:26:55;;;;;;;13.25;8.27;;;18.40;99.90;;;;;;4979596;28;20034;-72
2022/06/08 09:29:26;;;;;;;15.02;8.00;;;18.50;99.90;;;;;;4985222;28;20985;-73
2022/06/08 09:31:52;;;;;;;9.75;7.07;;;18.60;99.90;;;;;;4982720;28;20121;-72
2022/06/08 09:34:23;;;;;;;16.52;10.93;;;18.70;99.90;;;;;;4979413;28;20027;-74
2022/06/08 09:37:06;;;;;;;9.57;6.70;;;18.80;99.90;;;;;;4980683;28;20027;-73
2022/06/08 09:39:33;;;;;;;15.38;9.00;;;18.90;99.90;;;;;;4982407;28;20139;-72
2022/06/08 09:42:02;;;;;;;13.43;7.53;;;19.00;99.90;;;;;;4982991;28;20096;-73
2022/06/08 09:44:43;;;;;;;7.82;6.45;;;19.20;99.90;;;;;;4985210;28;20039;-72
2022/06/08 09:54:00;;;;;;;10.23;7.65;;;19.50;99.90;;;;;;4984394;28;20014;-73
2022/06/08 09:57:07;;;;;;;9.88;7.53;;;19.50;99.90;;;;;;4985759;28;20038;-73
2022/06/08 10:00:04;;;;;;;13.18;9.25;;;19.60;99.90;;;;;;4982025;28;20026;-73
2022/06/08 10:03:07;;;;;;;10.98;8.02;;;19.80;99.90;;;;;;4983092;28;20127;-73
2022/06/08 10:05:56;;;;;;;15.13;8.90;;;20.00;99.90;;;;;;4977333;28;20030;-73
2022/06/08 10:08:28;;;;;;;9.30;7.13;;;20.10;99.90;;;;;;4986136;28;20077;-72
2022/06/08 10:14:04;;;;;;;8.50;6.57;;;20.20;99.90;;;;;;4984966;28;20516;-73
2022/06/08 10:16:35;;;;;;;10.85;7.65;;;20.20;99.90;;;;;;4980447;28;20030;-75
2022/06/08 10:19:06;;;;;;;9.10;6.57;;;20.10;99.90;;;;;;4980813;28;20113;-74
2022/06/08 10:21:41;;;;;;;11.23;7.20;;;20.00;99.90;;;;;;4976734;28;20046;-74
2022/06/08 10:24:12;;;;;;;10.98;7.95;;;19.90;99.90;;;;;;4979813;28;20027;-74
2022/06/08 10:26:44;;;;;;;8.80;6.40;;;19.80;99.90;;;;;;4969569;28;20031;-75
2022/06/08 10:29:33;;;;;;;8.60;7.00;;;19.90;99.90;;;;;;4965972;28;20027;-73
2022/06/08 10:32:14;;;;;;;10.65;7.95;;;20.00;99.90;;;;;;4979816;28;20038;-73
2022/06/08 10:34:40;;;;;;;9.50;7.30;;;20.10;99.90;;;;;;4984599;28;20050;-73
2022/06/08 10:37:15;;;;;;;9.07;6.90;;;20.20;99.90;;;;;;4983262;28;20045;-74
2022/06/08 10:39:41;;;;;;;9.18;7.10;;;20.20;99.90;;;;;;4981745;28;20034;-73
2022/06/08 10:42:40;;;;;;;9.95;8.05;;;20.30;99.90;;;;;;4981384;28;20069;-74
2022/06/08 10:45:23;;;;;;;6.82;6.13;;;20.50;99.90;;;;;;4984500;28;20105;-74
2022/06/08 10:48:01;;;;;;;10.50;8.60;;;20.80;99.90;;;;;;4986395;28;20031;-74
2022/06/08 10:50:48;;;;;;;10.13;7.07;;;20.90;99.90;;;;;;4987331;28;20057;-74
2022/06/08 10:56:23;;;;;;;10.68;6.45;;;21.20;99.90;;;;;;4980516;28;20494;-74
2022/06/08 10:59:07;;;;;;;8.30;5.95;;;21.40;99.90;;;;;;4982634;28;20026;-74
2022/06/08 11:01:51;;;;;;;8.00;5.57;;;21.60;99.90;;;;;;4982129;28;20034;-74
2022/06/08 11:04:26;;;;;;;14.93;9.15;;;21.80;99.90;;;;;;4987166;28;20022;-74
2022/06/08 11:07:02;;;;;;;7.25;5.70;;;21.90;99.90;;;;;;5002363;28;20034;-74
2022/06/08 11:09:33;;;;;;;6.65;5.75;;;22.10;99.90;;;;;;4985244;28;20496;-74
2022/06/08 11:12:11;;;;;;;8.75;6.55;;;22.30;99.90;;;;;;4986287;28;20096;-73
2022/06/08 11:14:43;;;;;;;7.05;5.78;;;22.30;99.80;;;;;;4989870;28;20022;-73
2022/06/08 11:17:27;;;;;;;13.60;9.35;;;22.30;99.90;;;;;;4985407;28;20177;-74
2022/06/08 11:20:03;;;;;;;9.07;7.25;;;22.00;99.20;;;;;;4984799;28;20143;-73
2022/06/08 11:22:49;;;;;;;7.70;5.85;;;22.10;99.90;;;;;;4985521;28;20504;-73
2022/06/08 11:25:26;;;;;;;8.65;5.60;;;22.70;99.90;;;;;;4971667;28;20034;-73
2022/06/08 11:28:28;;;;;;;8.50;6.90;;;22.70;98.90;;;;;;4984316;28;20068;-73
2022/06/08 11:31:03;;;;;;;7.28;5.40;;;22.50;98.00;;;;;;4982125;28;20037;-73
2022/06/08 11:33:53;;;;;;;6.65;5.95;;;22.40;99.20;;;;;;4987566;28;20027;-73
2022/06/08 11:36:40;;;;;;;8.32;6.65;;;22.60;98.70;;;;;;4979924;28;20033;-74
2022/06/08 11:39:47;;;;;;;5.82;4.70;;;22.60;97.20;;;;;;4986217;28;20084;-73
2022/06/08 11:42:24;;;;;;;6.57;5.07;;;22.90;98.80;;;;;;4987516;28;20146;-73
2022/06/08 11:44:54;;;;;;;6.20;4.53;;;23.10;98.20;;;;;;4986039;28;20029;-74
2022/06/08 11:47:36;;;;;;;6.05;4.07;;;23.30;97.50;;;;;;4985128;28;20114;-75
2022/06/08 11:50:11;;;;;;;4.45;4.05;;;23.40;97.50;;;;;;4998989;28;20275;-76
2022/06/08 11:52:44;;;;;;;5.00;4.10;;;23.50;96.80;;;;;;4989487;28;20030;-74
2022/06/08 11:55:23;;;;;;;5.85;4.57;;;23.90;96.50;;;;;;4979620;28;20034;-73
2022/06/08 11:57:56;;;;;;;6.03;4.82;;;24.00;95.00;;;;;;4983897;28;20037;-74
2022/06/08 12:00:24;;;;;;;6.15;4.93;;;24.20;95.50;;;;;;4982475;28;20407;-73
2022/06/08 12:03:16;;;;;;;6.95;5.35;;;24.30;95.40;;;;;;4982612;28;20573;-72
2022/06/08 12:05:48;;;;;;;6.07;5.40;;;24.40;94.60;;;;;;4983510;28;20026;-72
2022/06/08 12:08:40;;;;;;;7.57;5.28;;;24.20;94.80;;;;;;4983883;28;20038;-73
2022/06/08 12:11:09;;;;;;;7.75;6.22;;;24.10;95.20;;;;;;4984426;28;20026;-75
2022/06/08 12:13:35;;;;;;;9.35;7.68;;;24.30;94.50;;;;;;4982736;28;20030;-72
2022/06/08 12:16:35;;;;;;;6.47;5.35;;;24.60;92.00;;;;;;4983857;28;20030;-73
2022/06/08 12:19:02;;;;;;;5.47;4.95;;;25.20;92.40;;;;;;4976033;28;20039;-75
2022/06/08 12:21:35;;;;;;;13.57;5.63;;;26.10;92.70;;;;;;4981791;28;20030;-75
2022/06/08 12:24:04;;;;;;;5.55;4.70;;;26.50;90.80;;;;;;4984433;28;20027;-74
2022/06/08 12:26:58;;;;;;;10.85;8.40;;;27.40;86.70;;;;;;4986890;28;20068;-73
2022/06/08 12:29:47;;;;;;;7.82;5.30;;;28.50;73.20;;;;;;4981459;28;20052;-74
2022/06/08 12:32:25;;;;;;;5.72;4.95;;;29.10;72.60;;;;;;4985046;28;20027;-73
2022/06/08 12:35:06;;;;;;;9.98;5.13;;;30.10;68.90;;;;;;4964391;28;20041;-75
2022/06/08 12:37:44;;;;;;;6.80;4.95;;;31.20;64.90;;;;;;4986127;28;20036;-74
2022/06/08 12:40:16;;;;;;;6.95;4.93;;;32.30;61.80;;;;;;4984412;28;20120;-74
2022/06/08 12:42:51;;;;;;;7.05;5.32;;;33.00;57.90;;;;;;4983570;28;20113;-75
2022/06/08 12:45:34;;;;;;;5.10;4.60;;;32.90;55.40;;;;;;4976884;28;20041;-75
2022/06/08 12:48:32;;;;;;;5.63;4.20;;;32.90;50.00;;;;;;4983628;28;20030;-75
2022/06/08 12:50:58;;;;;;;7.60;6.18;;;31.60;53.40;;;;;;4980266;28;20053;-75
2022/06/08 12:53:24;;;;;;;5.65;5.05;;;29.90;54.20;;;;;;4978582;28;20076;-72
2022/06/08 12:55:54;;;;;;;6.55;5.88;;;28.80;58.00;;;;;;4986297;28;20580;-74
2022/06/08 12:58:23;;;;;;;6.28;4.47;;;27.50;59.20;;;;;;4982038;28;20030;-74
2022/06/08 13:00:53;;;;;;;6.80;4.93;;;26.80;63.70;;;;;;4980409;28;20031;-73
2022/06/08 13:03:25;;;;;;;5.82;5.22;;;26.20;65.60;;;;;;4975441;28;20027;-75
2022/06/08 13:05:51;;;;;;;5.55;4.65;;;25.70;66.60;;;;;;4979418;28;20030;-75
2022/06/08 13:08:21;;;;;;;4.93;4.40;;;25.50;69.10;;;;;;4994809;28;20557;-74
2022/06/08 13:10:50;;;;;;;9.75;5.30;;;25.30;69.70;;;;;;4963696;28;20499;-75
2022/06/08 13:13:20;;;;;;;6.28;5.18;;;25.10;70.50;;;;;;4967205;28;20062;-74
2022/06/08 13:15:47;;;;;;;9.88;4.78;;;25.40;73.10;;;;;;4977390;28;20052;-75
2022/06/08 13:18:25;;;;;;;7.20;4.70;;;27.20;71.80;;;;;;4963006;28;20117;-74
2022/06/08 13:20:53;;;;;;;4.07;3.40;;;29.60;67.20;;;;;;4982853;28;20446;-73
2022/06/08 13:23:20;;;;;;;4.15;3.65;;;31.70;62.50;;;;;;4982055;28;20483;-73
2022/06/08 13:25:48;;;;;;;5.20;3.70;;;33.40;56.20;;;;;;4984897;28;20034;-75
2022/06/08 13:28:15;;;;;;;87.60;75.22;;;34.80;51.30;;;;;;4960084;28;20470;-75